Time;durP1;ratioP1;P1;durP2;ratioP2;P2;SDS_P1;SDS_P2;PMS_P1;PMS_P2;Temp;Humidity;BMP_temperature;BMP_pressure;BME280_temperature;BME280_humidity;BME280_pressure;Samples;Min_cycle;Max_cycle;Signal;HPM_P1;HPM_P2
2022/09/25 00:00:31;;;;;;;24.07;21.90;;;15.10;99.90;;;;;;5091277;28;20454;-84
2022/09/25 00:02:58;;;;;;;20.47;18.67;;;15.10;99.90;;;;;;5084034;28;20840;-85
2022/09/25 00:05:26;;;;;;;21.27;19.33;;;15.20;99.90;;;;;;5090219;28;20446;-85
2022/09/25 00:07:55;;;;;;;21.97;19.37;;;15.20;99.90;;;;;;5094542;28;20476;-85
2022/09/25 00:10:24;;;;;;;18.10;16.20;;;15.20;99.90;;;;;;5106627;28;20427;-86
2022/09/25 00:12:50;;;;;;;18.57;16.87;;;15.20;99.90;;;;;;5078462;28;20963;-85
2022/09/25 00:15:18;;;;;;;21.30;19.20;;;15.10;99.90;;;;;;5084403;28;20772;-85
2022/09/25 00:17:44;;;;;;;18.97;17.07;;;15.10;99.90;;;;;;5081933;28;20444;-84
2022/09/25 00:20:10;;;;;;;20.73;18.00;;;15.10;99.90;;;;;;5097729;28;20496;-82
2022/09/25 00:22:38;;;;;;;18.67;17.07;;;15.10;99.90;;;;;;5114935;28;20462;-84
2022/09/25 00:25:05;;;;;;;20.23;18.33;;;15.10;99.90;;;;;;5098487;28;20599;-84
2022/09/25 00:27:32;;;;;;;20.70;18.50;;;15.10;99.90;;;;;;5081988;28;20506;-85
2022/09/25 00:29:59;;;;;;;20.13;18.23;;;15.10;99.90;;;;;;5087007;28;20521;-85
2022/09/25 00:32:26;;;;;;;19.67;17.67;;;15.00;99.90;;;;;;5084731;28;20551;-85
2022/09/25 00:34:53;;;;;;;19.40;17.70;;;15.00;99.90;;;;;;5086126;28;20492;-85
2022/09/25 00:37:19;;;;;;;22.70;18.03;;;15.00;99.90;;;;;;5082847;28;20863;-85
2022/09/25 00:39:47;;;;;;;18.97;17.10;;;15.00;99.90;;;;;;5089600;28;20487;-85
2022/09/25 00:42:14;;;;;;;20.37;18.07;;;15.00;99.90;;;;;;5081135;28;20458;-85
2022/09/25 00:44:55;;;;;;;18.37;16.60;;;15.00;99.90;;;;;;5086771;28;20803;-84
2022/09/25 00:47:28;;;;;;;18.90;17.30;;;15.00;99.90;;;;;;5081384;28;21004;-84
2022/09/25 00:49:57;;;;;;;17.07;15.47;;;14.90;99.90;;;;;;5083582;28;20526;-84
2022/09/25 00:52:26;;;;;;;16.93;15.57;;;14.90;99.90;;;;;;5086838;28;20987;-84
2022/09/25 00:54:58;;;;;;;15.40;13.90;;;14.90;99.90;;;;;;5082728;28;20441;-84
2022/09/25 00:57:29;;;;;;;17.07;15.57;;;14.90;99.90;;;;;;5089705;28;20415;-84
2022/09/25 01:00:00;;;;;;;17.70;16.10;;;14.80;99.90;;;;;;5103682;28;20496;-83
2022/09/25 01:02:29;;;;;;;19.87;17.87;;;14.80;99.90;;;;;;5086291;28;20455;-83
2022/09/25 01:04:58;;;;;;;17.33;15.67;;;14.80;99.90;;;;;;5087155;28;20958;-84
2022/09/25 01:07:24;;;;;;;18.67;16.87;;;14.70;99.90;;;;;;5076819;28;20476;-84
2022/09/25 01:09:51;;;;;;;17.77;16.17;;;14.70;99.90;;;;;;5084055;28;20491;-84
2022/09/25 01:12:19;;;;;;;16.57;15.07;;;14.70;99.90;;;;;;5087797;28;20517;-84
2022/09/25 01:14:47;;;;;;;19.07;17.37;;;14.70;99.90;;;;;;5098751;28;20450;-84
2022/09/25 01:17:20;;;;;;;17.87;16.27;;;14.70;99.90;;;;;;5111213;28;20472;-84
2022/09/25 01:20:09;;;;;;;17.40;15.90;;;14.80;99.90;;;;;;5094888;28;20450;-85
2022/09/25 01:22:50;;;;;;;18.90;16.93;;;14.80;99.90;;;;;;5094745;28;20562;-85
2022/09/25 01:25:28;;;;;;;19.83;16.83;;;14.70;99.90;;;;;;5091738;28;20447;-85
2022/09/25 01:28:19;;;;;;;18.57;16.80;;;14.70;99.90;;;;;;5105990;28;20463;-83
2022/09/25 01:30:52;;;;;;;19.77;17.97;;;14.60;99.90;;;;;;5096008;28;20540;-85
2022/09/25 01:33:27;;;;;;;18.47;16.90;;;14.50;99.90;;;;;;5092363;28;20481;-85
2022/09/25 01:36:00;;;;;;;21.57;19.33;;;14.50;99.90;;;;;;5092313;28;20848;-84
2022/09/25 01:38:33;;;;;;;20.30;18.60;;;14.50;99.90;;;;;;5092071;28;20439;-85
2022/09/25 01:41:08;;;;;;;19.47;17.60;;;14.60;99.90;;;;;;5089801;28;20465;-85
2022/09/25 01:43:38;;;;;;;20.23;18.10;;;14.60;99.90;;;;;;5091305;28;20481;-85
2022/09/25 01:46:13;;;;;;;19.33;17.60;;;14.70;99.90;;;;;;5092542;28;20435;-84
2022/09/25 01:48:42;;;;;;;19.70;17.67;;;14.70;99.90;;;;;;5104585;28;20443;-85
2022/09/25 01:51:15;;;;;;;19.40;17.53;;;14.70;99.90;;;;;;5114284;28;20455;-85
2022/09/25 01:53:46;;;;;;;19.40;17.37;;;14.70;99.90;;;;;;5090555;28;20439;-85
2022/09/25 01:56:19;;;;;;;19.07;17.37;;;14.60;99.90;;;;;;5092093;28;20439;-86
2022/09/25 01:58:50;;;;;;;17.80;16.10;;;14.60;99.90;;;;;;5085362;28;21269;-86
2022/09/25 02:01:22;;;;;;;21.67;19.47;;;14.60;99.90;;;;;;5078971;28;20443;-85
2022/09/25 02:03:54;;;;;;;21.00;18.93;;;14.60;99.90;;;;;;5100178;28;20814;-86
2022/09/25 02:06:21;;;;;;;22.33;20.10;;;14.60;99.90;;;;;;5092900;28;20512;-85
2022/09/25 02:08:52;;;;;;;20.23;18.43;;;14.70;99.90;;;;;;5092452;28;20442;-86
2022/09/25 02:11:20;;;;;;;20.57;18.70;;;14.60;99.90;;;;;;5090445;28;20811;-86
2022/09/25 02:13:50;;;;;;;23.10;20.87;;;14.60;99.90;;;;;;5077398;28;20444;-86
2022/09/25 02:16:22;;;;;;;21.63;19.70;;;14.60;99.90;;;;;;5080301;28;20454;-86
2022/09/25 02:21:43;;;;;;;22.13;20.03;;;14.50;99.90;;;;;;5096798;28;20434;-85
2022/09/25 02:24:18;;;;;;;20.57;18.57;;;14.40;99.90;;;;;;5101841;28;20443;-85
2022/09/25 02:26:45;;;;;;;22.10;20.00;;;14.40;99.90;;;;;;5100747;28;20474;-85
2022/09/25 02:29:14;;;;;;;21.07;19.07;;;14.40;99.90;;;;;;5098528;28;20439;-85
2022/09/25 02:31:45;;;;;;;22.57;20.30;;;14.40;99.90;;;;;;5102397;28;20548;-85
2022/09/25 02:34:13;;;;;;;24.00;21.60;;;14.30;99.90;;;;;;5091498;28;20493;-86
2022/09/25 02:36:39;;;;;;;22.07;20.00;;;14.30;99.90;;;;;;5093152;28;20443;-85
2022/09/25 02:39:09;;;;;;;22.17;19.97;;;14.30;99.90;;;;;;5099106;28;20418;-84
2022/09/25 02:41:51;;;;;;;22.30;20.27;;;14.20;99.90;;;;;;5104768;28;20436;-85
2022/09/25 02:44:30;;;;;;;23.27;21.07;;;14.20;99.90;;;;;;5107137;28;20459;-84
2022/09/25 02:47:11;;;;;;;23.20;20.90;;;14.10;99.90;;;;;;5091859;28;20868;-85
2022/09/25 02:49:44;;;;;;;24.53;21.87;;;14.20;99.90;;;;;;5092244;28;20446;-85
2022/09/25 02:52:15;;;;;;;22.77;20.57;;;14.10;99.90;;;;;;5092351;28;20538;-85
2022/09/25 02:54:47;;;;;;;21.93;19.60;;;14.10;99.90;;;;;;5091912;28;20442;-85
2022/09/25 02:57:20;;;;;;;23.70;21.40;;;14.10;99.90;;;;;;5090458;28;20451;-84
2022/09/25 02:59:53;;;;;;;22.87;20.50;;;14.10;99.90;;;;;;5094365;28;20432;-85
2022/09/25 03:02:23;;;;;;;27.53;22.10;;;14.00;99.90;;;;;;5088579;28;20490;-85
2022/09/25 03:04:51;;;;;;;22.73;20.60;;;14.00;99.90;;;;;;5090399;28;20936;-86
2022/09/25 03:07:18;;;;;;;23.47;21.20;;;14.00;99.90;;;;;;5076818;28;20471;-86
2022/09/25 03:09:46;;;;;;;21.40;19.40;;;14.00;99.90;;;;;;5092613;28;20443;-85
2022/09/25 03:12:14;;;;;;;22.60;20.30;;;14.00;99.90;;;;;;5106615;28;20481;-85
2022/09/25 03:14:42;;;;;;;23.90;21.57;;;14.00;99.90;;;;;;5105521;28;20943;-85
2022/09/25 03:17:09;;;;;;;20.73;18.67;;;13.90;99.90;;;;;;5097366;28;20447;-85
2022/09/25 03:19:37;;;;;;;21.23;18.93;;;13.90;99.90;;;;;;5096883;28;20466;-85
2022/09/25 03:22:04;;;;;;;22.70;19.50;;;13.90;99.90;;;;;;5096311;28;20472;-85
2022/09/25 03:24:31;;;;;;;23.83;21.27;;;13.90;99.90;;;;;;5095795;28;20439;-86
2022/09/25 03:26:58;;;;;;;24.23;21.83;;;14.00;99.90;;;;;;5083344;28;20851;-86
2022/09/25 03:29:25;;;;;;;22.70;20.37;;;14.00;99.90;;;;;;5110078;28;20453;-86
2022/09/25 03:31:52;;;;;;;24.07;21.57;;;14.00;99.90;;;;;;5114138;28;20461;-86
2022/09/25 03:37:13;;;;;;;22.57;20.53;;;14.00;99.90;;;;;;5068321;28;20489;-86
2022/09/25 03:39:40;;;;;;;21.47;19.37;;;14.00;99.90;;;;;;5080435;28;20442;-86
2022/09/25 03:42:06;;;;;;;20.30;18.20;;;14.00;99.90;;;;;;5088472;28;20517;-86
2022/09/25 03:44:33;;;;;;;23.30;21.00;;;13.90;99.90;;;;;;5093996;28;20427;-86
2022/09/25 03:47:00;;;;;;;23.07;20.67;;;13.90;99.90;;;;;;5106922;28;20439;-86
2022/09/25 03:49:26;;;;;;;23.43;21.00;;;13.90;99.90;;;;;;5095314;28;20447;-86
2022/09/25 03:51:53;;;;;;;21.93;19.63;;;13.90;99.90;;;;;;5094667;28;21234;-86
2022/09/25 03:54:21;;;;;;;22.10;19.80;;;13.90;99.90;;;;;;5088989;28;20450;-85
2022/09/25 03:56:47;;;;;;;22.90;20.50;;;13.80;99.90;;;;;;5077581;28;20444;-85
2022/09/25 03:59:15;;;;;;;21.57;19.40;;;13.80;99.90;;;;;;5088394;28;20432;-86
2022/09/25 04:01:42;;;;;;;22.70;20.33;;;13.80;99.90;;;;;;5094068;28;20458;-86
2022/09/25 04:04:08;;;;;;;21.13;19.03;;;13.90;99.90;;;;;;5092684;28;20447;-86
2022/09/25 04:06:35;;;;;;;20.87;18.77;;;13.80;99.90;;;;;;5087931;28;20439;-86
2022/09/25 04:09:02;;;;;;;22.50;20.20;;;13.70;99.90;;;;;;5077033;28;20908;-85
2022/09/25 04:11:30;;;;;;;23.50;20.33;;;13.70;99.90;;;;;;5074954;28;20435;-86
2022/09/25 04:13:57;;;;;;;22.97;20.57;;;13.60;99.90;;;;;;5075512;28;21003;-86
2022/09/25 04:16:24;;;;;;;26.80;23.97;;;13.60;99.90;;;;;;5090716;28;20439;-86
2022/09/25 04:18:51;;;;;;;21.83;19.23;;;13.60;99.90;;;;;;5081990;28;20455;-86
2022/09/25 04:21:18;;;;;;;25.47;20.80;;;13.60;99.90;;;;;;5093599;28;20437;-85
2022/09/25 04:24:46;;;;;;;20.63;16.70;;;13.60;99.90;;;;;;5103373;28;20435;-86
2022/09/25 04:26:34;;;;;;;19.07;17.10;;;13.60;99.90;;;;;;5099215;28;20433;-87
2022/09/25 04:29:02;;;;;;;21.10;16.80;;;13.60;99.90;;;;;;5108386;28;20490;-86
2022/09/25 04:31:29;;;;;;;21.10;18.50;;;13.60;99.90;;;;;;5106102;28;20436;-87
2022/09/25 04:33:55;;;;;;;19.57;17.40;;;13.70;99.90;;;;;;5087297;28;20443;-87
2022/09/25 04:36:21;;;;;;;19.87;16.43;;;13.60;99.90;;;;;;5083578;28;20807;-87
2022/09/25 04:38:48;;;;;;;20.60;18.50;;;13.60;99.90;;;;;;5090647;28;20576;-87
2022/09/25 04:41:18;;;;;;;18.37;16.37;;;13.60;99.90;;;;;;5089682;28;20443;-86
2022/09/25 04:43:46;;;;;;;23.83;16.90;;;13.60;99.90;;;;;;5082652;28;20538;-86
2022/09/25 04:46:14;;;;;;;20.23;18.07;;;13.70;99.90;;;;;;5099159;28;20457;-86
2022/09/25 04:48:44;;;;;;;17.77;15.87;;;13.60;99.90;;;;;;5101396;28;22334;-85
2022/09/25 04:51:11;;;;;;;19.57;16.03;;;13.60;99.90;;;;;;5086416;28;20559;-84
2022/09/25 04:53:37;;;;;;;20.43;17.73;;;13.60;99.90;;;;;;5083226;28;20488;-84
2022/09/25 04:56:07;;;;;;;19.20;16.90;;;13.60;99.90;;;;;;5084178;28;20453;-84
2022/09/25 04:58:34;;;;;;;19.40;16.00;;;13.60;99.90;;;;;;5092585;28;20967;-85
2022/09/25 05:01:07;;;;;;;16.67;14.87;;;13.60;99.90;;;;;;5101292;28;20419;-84
2022/09/25 05:03:34;;;;;;;16.93;15.20;;;13.60;99.90;;;;;;5107244;28;20514;-82
2022/09/25 05:06:01;;;;;;;18.27;16.13;;;13.60;99.90;;;;;;5111000;28;20773;-83
2022/09/25 05:08:28;;;;;;;16.97;15.07;;;13.50;99.90;;;;;;5100110;28;20479;-84
2022/09/25 05:10:54;;;;;;;17.23;15.30;;;13.50;99.90;;;;;;5101685;28;20431;-84
2022/09/25 05:13:21;;;;;;;15.60;14.03;;;13.50;99.90;;;;;;5091001;28;20460;-84
2022/09/25 05:15:48;;;;;;;16.90;14.50;;;13.50;99.90;;;;;;5097928;28;20430;-85
2022/09/25 05:18:19;;;;;;;18.63;15.57;;;13.60;99.90;;;;;;5109530;28;20470;-84
2022/09/25 05:20:46;;;;;;;15.00;13.40;;;13.60;99.90;;;;;;5096749;28;20955;-84
2022/09/25 05:23:13;;;;;;;14.53;13.07;;;13.60;99.90;;;;;;5085305;28;20463;-85
2022/09/25 05:25:39;;;;;;;18.10;15.40;;;13.50;99.90;;;;;;5084482;28;20445;-85
2022/09/25 05:28:06;;;;;;;18.67;15.17;;;13.50;99.90;;;;;;5088478;28;20483;-84
2022/09/25 05:30:38;;;;;;;15.60;13.80;;;13.50;99.90;;;;;;5086425;28;20442;-85
2022/09/25 05:33:05;;;;;;;18.03;14.10;;;13.50;99.90;;;;;;5085258;28;20459;-85
2022/09/25 05:35:34;;;;;;;16.30;13.40;;;13.50;99.90;;;;;;5084243;28;20826;-84
2022/09/25 05:38:01;;;;;;;15.13;13.53;;;13.40;99.90;;;;;;5085324;28;20457;-85
2022/09/25 05:40:27;;;;;;;15.23;12.70;;;13.50;99.90;;;;;;5087125;28;20458;-85
2022/09/25 05:42:55;;;;;;;15.93;13.73;;;13.50;99.90;;;;;;5086569;28;20473;-86
2022/09/25 05:45:23;;;;;;;17.27;12.00;;;13.50;99.90;;;;;;5085188;28;20493;-85
2022/09/25 05:47:59;;;;;;;13.40;12.00;;;13.50;99.90;;;;;;5087560;28;20518;-86
2022/09/25 05:50:25;;;;;;;13.60;12.03;;;13.50;99.90;;;;;;5087866;28;20443;-86
2022/09/25 05:52:56;;;;;;;17.17;12.13;;;13.50;99.90;;;;;;5088601;28;20468;-85
2022/09/25 05:55:23;;;;;;;16.47;12.63;;;13.50;99.90;;;;;;5095200;28;20442;-86
2022/09/25 05:57:50;;;;;;;13.80;11.20;;;13.50;99.90;;;;;;5105488;28;20495;-85
2022/09/25 06:00:17;;;;;;;14.00;12.37;;;13.50;99.90;;;;;;5089539;28;20868;-86
2022/09/25 06:02:44;;;;;;;14.43;13.03;;;13.50;99.90;;;;;;5088084;28;20459;-85
2022/09/25 06:05:10;;;;;;;14.13;12.63;;;13.60;99.90;;;;;;5091301;28;20431;-86
2022/09/25 06:07:37;;;;;;;12.30;11.00;;;13.70;99.90;;;;;;5085088;28;20447;-86
2022/09/25 06:10:06;;;;;;;11.17;10.00;;;13.70;99.90;;;;;;5087461;28;20450;-85
2022/09/25 06:12:33;;;;;;;12.60;11.30;;;13.70;99.90;;;;;;5084808;28;20504;-84
2022/09/25 06:15:00;;;;;;;14.17;12.33;;;13.80;99.90;;;;;;5103164;28;20435;-85
2022/09/25 06:17:26;;;;;;;11.97;10.73;;;13.80;99.90;;;;;;5094834;28;20439;-84
2022/09/25 06:19:53;;;;;;;13.10;10.80;;;13.90;99.90;;;;;;5087011;28;20438;-85
2022/09/25 06:22:20;;;;;;;12.10;10.50;;;13.90;99.90;;;;;;5088975;28;20459;-86
2022/09/25 06:24:47;;;;;;;13.83;12.43;;;13.90;99.90;;;;;;5088966;28;21044;-85
2022/09/25 06:27:15;;;;;;;14.87;12.17;;;14.00;99.90;;;;;;5102344;28;20420;-86
2022/09/25 06:29:42;;;;;;;12.87;11.50;;;14.10;99.90;;;;;;5080162;28;20483;-86
2022/09/25 06:32:08;;;;;;;14.47;12.57;;;14.10;99.90;;;;;;5085009;28;20451;-86
2022/09/25 06:34:35;;;;;;;14.77;13.23;;;14.20;99.90;;;;;;5105425;28;20425;-84
2022/09/25 06:37:02;;;;;;;13.83;12.47;;;14.20;99.90;;;;;;5090173;28;20928;-87
2022/09/25 06:39:32;;;;;;;13.77;12.33;;;14.20;99.90;;;;;;5087266;28;22265;-84
2022/09/25 06:41:58;;;;;;;13.30;11.63;;;14.30;99.90;;;;;;5085847;28;20462;-85
2022/09/25 06:44:27;;;;;;;12.63;11.33;;;14.20;99.90;;;;;;5086469;28;20439;-85
2022/09/25 06:46:53;;;;;;;14.43;12.93;;;14.30;99.90;;;;;;5092448;28;20448;-85
2022/09/25 06:49:20;;;;;;;14.17;12.87;;;14.30;99.90;;;;;;5104693;28;20463;-84
2022/09/25 06:51:49;;;;;;;12.10;10.90;;;14.40;99.90;;;;;;5107887;28;20459;-85
2022/09/25 06:54:16;;;;;;;10.67;9.67;;;14.40;99.90;;;;;;5098382;28;20439;-86
2022/09/25 06:56:43;;;;;;;11.83;10.60;;;14.40;99.90;;;;;;5091716;28;20439;-85
2022/09/25 06:59:09;;;;;;;12.60;11.37;;;14.50;99.90;;;;;;5091478;28;20435;-86
2022/09/25 07:01:37;;;;;;;11.17;10.10;;;14.50;99.90;;;;;;5092739;28;20832;-86
2022/09/25 07:04:03;;;;;;;12.00;10.77;;;14.60;99.90;;;;;;5084759;28;20443;-86
2022/09/25 07:06:32;;;;;;;13.97;11.40;;;14.60;99.90;;;;;;5084149;28;20487;-85
2022/09/25 07:09:00;;;;;;;10.67;9.57;;;14.60;99.90;;;;;;5084381;28;20249;-86
2022/09/25 07:11:28;;;;;;;11.43;10.33;;;14.60;99.90;;;;;;5088674;28;20446;-86
2022/09/25 07:13:54;;;;;;;12.00;10.60;;;14.60;99.90;;;;;;5094117;28;20451;-86
2022/09/25 07:16:22;;;;;;;10.50;9.50;;;14.70;99.90;;;;;;5082002;28;20439;-86
2022/09/25 07:18:53;;;;;;;12.97;11.63;;;14.80;99.90;;;;;;5084664;28;20436;-84
2022/09/25 07:21:22;;;;;;;11.30;10.20;;;14.90;99.90;;;;;;5087145;28;20450;-85
2022/09/25 07:23:50;;;;;;;10.93;9.83;;;15.00;99.90;;;;;;5096830;28;20443;-84
2022/09/25 07:26:20;;;;;;;12.47;11.10;;;15.00;99.90;;;;;;5102538;28;20439;-85
2022/09/25 07:28:47;;;;;;;12.17;10.50;;;15.00;99.90;;;;;;5096790;28;20530;-83
2022/09/25 07:31:15;;;;;;;13.37;11.97;;;15.00;99.90;;;;;;5112038;28;20442;-85
2022/09/25 07:33:42;;;;;;;13.23;11.90;;;15.00;99.90;;;;;;5109856;28;20452;-85
2022/09/25 07:36:11;;;;;;;11.33;10.33;;;15.00;99.90;;;;;;5097339;28;20439;-85
2022/09/25 07:38:38;;;;;;;13.07;11.77;;;15.10;99.90;;;;;;5096531;28;20980;-85
2022/09/25 07:41:05;;;;;;;12.33;10.90;;;15.10;99.90;;;;;;5116061;28;20419;-86
2022/09/25 07:43:32;;;;;;;11.70;10.40;;;15.20;99.90;;;;;;5114697;28;20458;-84
2022/09/25 07:45:59;;;;;;;12.57;11.17;;;15.30;99.90;;;;;;5102576;28;20786;-86
2022/09/25 07:48:25;;;;;;;12.90;11.57;;;15.30;99.90;;;;;;5085192;28;20475;-86
2022/09/25 07:50:54;;;;;;;13.73;12.30;;;15.40;99.90;;;;;;5088364;28;20435;-87
2022/09/25 07:53:22;;;;;;;13.33;11.93;;;15.20;99.90;;;;;;5088797;28;20906;-85
2022/09/25 07:55:49;;;;;;;14.13;12.30;;;15.20;99.90;;;;;;5094892;28;20447;-84
2022/09/25 07:58:18;;;;;;;16.17;13.90;;;15.30;99.90;;;;;;5096829;28;20439;-84
2022/09/25 08:00:45;;;;;;;13.93;12.53;;;15.30;99.90;;;;;;5106669;28;20449;-84
2022/09/25 08:03:12;;;;;;;13.30;11.93;;;15.40;99.90;;;;;;5088975;28;20455;-85
2022/09/25 08:05:39;;;;;;;15.97;13.77;;;15.40;99.90;;;;;;5102623;28;20443;-85
2022/09/25 08:08:05;;;;;;;15.93;14.23;;;15.50;99.90;;;;;;5093045;28;20439;-85
2022/09/25 08:10:33;;;;;;;15.13;13.17;;;15.50;99.90;;;;;;5085944;28;20439;-85
2022/09/25 08:13:00;;;;;;;16.63;14.90;;;15.50;99.90;;;;;;5086443;28;20995;-85
2022/09/25 08:15:27;;;;;;;16.40;14.60;;;15.60;99.90;;;;;;5086203;28;20439;-86
2022/09/25 08:17:54;;;;;;;16.80;15.07;;;15.60;99.90;;;;;;5086897;28;20440;-86
2022/09/25 08:20:21;;;;;;;14.40;13.07;;;15.70;99.90;;;;;;5083574;28;20951;-85
2022/09/25 08:22:47;;;;;;;16.23;14.60;;;15.60;99.90;;;;;;5104255;28;20462;-84
2022/09/25 08:25:14;;;;;;;16.27;14.67;;;15.50;99.90;;;;;;5096173;28;20432;-85
2022/09/25 08:27:42;;;;;;;15.80;14.30;;;15.50;99.90;;;;;;5082785;28;20452;-85
2022/09/25 08:30:11;;;;;;;16.87;14.23;;;15.60;99.90;;;;;;5086017;28;21041;-85
2022/09/25 08:32:38;;;;;;;16.73;15.03;;;15.70;99.90;;;;;;5083181;28;20489;-85
2022/09/25 08:35:05;;;;;;;16.13;14.67;;;15.80;99.90;;;;;;5082866;28;20812;-85
2022/09/25 08:37:32;;;;;;;18.00;16.13;;;15.90;99.90;;;;;;5092876;28;20545;-85
2022/09/25 08:39:59;;;;;;;15.73;14.23;;;16.00;99.90;;;;;;5105149;28;20443;-83
2022/09/25 08:42:31;;;;;;;16.53;14.93;;;16.10;99.90;;;;;;5102016;28;20542;-84
2022/09/25 08:50:43;;;;;;;16.70;15.10;;;16.30;99.90;;;;;;5087484;28;20412;-84
2022/09/25 08:53:16;;;;;;;14.43;13.03;;;16.30;99.90;;;;;;5109323;28;20465;-84
2022/09/25 08:58:30;;;;;;;15.73;14.20;;;16.50;99.90;;;;;;5086821;28;20958;-85
2022/09/25 09:01:02;;;;;;;15.67;13.50;;;16.50;99.90;;;;;;5092247;28;20781;-83
2022/09/25 09:03:30;;;;;;;14.30;12.50;;;16.50;99.90;;;;;;5083511;28;20465;-82
2022/09/25 09:06:01;;;;;;;14.77;13.37;;;16.50;99.90;;;;;;5089229;28;20448;-83
2022/09/25 09:08:31;;;;;;;15.20;13.70;;;16.50;99.90;;;;;;5081341;28;20436;-84
2022/09/25 09:11:01;;;;;;;15.67;14.27;;;16.60;99.90;;;;;;5091597;28;20443;-84
2022/09/25 09:13:32;;;;;;;15.20;13.87;;;16.60;99.90;;;;;;5097377;28;20460;-82
2022/09/25 09:16:05;;;;;;;14.33;12.90;;;16.60;99.90;;;;;;5088369;28;20481;-84
2022/09/25 09:18:37;;;;;;;14.57;13.10;;;16.40;99.90;;;;;;5093044;28;20489;-84
2022/09/25 09:21:10;;;;;;;15.17;13.80;;;16.30;99.90;;;;;;5083454;28;20444;-84
2022/09/25 09:23:48;;;;;;;14.57;13.10;;;16.20;99.90;;;;;;5093366;28;20454;-83
2022/09/25 09:26:20;;;;;;;13.53;12.33;;;16.10;99.90;;;;;;5101752;28;20439;-88
2022/09/25 09:29:17;;;;;;;14.80;13.40;;;16.40;99.90;;;;;;5092104;28;20506;-83
2022/09/25 09:31:51;;;;;;;15.63;14.00;;;16.90;99.90;;;;;;5087193;28;20476;-85
2022/09/25 09:34:40;;;;;;;13.17;11.87;;;17.60;99.90;;;;;;5093534;28;20520;-83
2022/09/25 09:37:15;;;;;;;13.90;12.53;;;18.00;99.90;;;;;;5096412;28;20538;-83
2022/09/25 09:39:50;;;;;;;15.43;14.00;;;18.40;99.90;;;;;;5093227;28;20804;-88
2022/09/25 09:42:25;;;;;;;13.53;12.30;;;18.60;99.90;;;;;;5079433;28;20463;-85
2022/09/25 09:44:58;;;;;;;12.73;11.40;;;18.90;99.90;;;;;;5086562;28;20948;-85
2022/09/25 09:47:40;;;;;;;10.70;9.60;;;19.40;99.90;;;;;;5079966;28;21108;-86
2022/09/25 09:50:21;;;;;;;12.67;11.47;;;19.40;99.90;;;;;;5079860;28;20550;-88
2022/09/25 09:52:52;;;;;;;12.40;11.30;;;19.20;99.90;;;;;;5091606;28;20462;-82
2022/09/25 09:55:24;;;;;;;12.73;11.43;;;18.90;99.90;;;;;;5093902;28;20435;-81
2022/09/25 09:57:53;;;;;;;10.10;9.20;;;18.60;99.90;;;;;;5104216;28;20427;-81
2022/09/25 10:00:21;;;;;;;10.27;9.20;;;18.40;99.90;;;;;;5086635;28;20433;-83
2022/09/25 10:02:54;;;;;;;11.60;10.50;;;18.30;99.90;;;;;;5079357;28;20478;-82
2022/09/25 10:05:25;;;;;;;10.50;9.50;;;18.00;99.90;;;;;;5082559;28;20458;-82
2022/09/25 10:07:52;;;;;;;9.53;8.57;;;17.90;99.90;;;;;;5089694;28;20438;-84
2022/09/25 10:10:20;;;;;;;11.03;10.03;;;17.90;99.90;;;;;;5094410;28;20468;-82
2022/09/25 10:12:50;;;;;;;11.40;10.30;;;17.80;99.90;;;;;;5093464;28;20496;-80
2022/09/25 10:15:27;;;;;;;10.50;9.40;;;17.70;99.90;;;;;;5077459;28;20485;-81
2022/09/25 10:17:57;;;;;;;12.17;10.93;;;17.60;99.90;;;;;;5093978;28;21015;-85
2022/09/25 10:20:27;;;;;;;10.33;9.40;;;17.60;99.90;;;;;;5094977;28;20471;-85
2022/09/25 10:22:56;;;;;;;10.57;9.53;;;17.70;99.90;;;;;;5086390;28;20463;-84
2022/09/25 10:25:50;;;;;;;9.60;8.70;;;17.70;99.90;;;;;;5092158;28;20457;-85
2022/09/25 10:28:29;;;;;;;10.77;8.90;;;17.90;99.90;;;;;;5103716;28;20448;-85
2022/09/25 10:30:57;;;;;;;10.43;9.53;;;18.00;99.90;;;;;;5110062;28;20475;-85
2022/09/25 10:33:27;;;;;;;11.97;10.10;;;18.20;99.90;;;;;;5101003;28;20470;-85
2022/09/25 10:35:55;;;;;;;12.73;10.00;;;18.60;99.90;;;;;;5118438;22;20495;-86
2022/09/25 10:38:31;;;;;;;10.00;9.00;;;18.80;99.90;;;;;;5073607;28;20492;-86
2022/09/25 10:41:02;;;;;;;10.10;9.20;;;18.90;99.90;;;;;;5065210;28;20787;-86
2022/09/25 10:43:29;;;;;;;11.53;9.47;;;19.10;99.90;;;;;;5072291;28;20531;-85
2022/09/25 10:46:09;;;;;;;10.33;9.33;;;19.20;99.90;;;;;;5070268;28;20508;-86
2022/09/25 10:51:23;;;;;;;14.50;11.43;;;19.20;99.90;;;;;;5058722;28;20447;-85
2022/09/25 10:53:52;;;;;;;12.67;10.67;;;19.10;99.90;;;;;;5061211;28;20459;-86
2022/09/25 10:56:25;;;;;;;11.63;10.63;;;18.90;99.90;;;;;;5055873;28;20457;-86
2022/09/25 10:58:55;;;;;;;13.90;12.53;;;18.60;99.90;;;;;;5035400;28;20929;-86
2022/09/25 11:01:32;;;;;;;13.37;12.10;;;18.40;99.90;;;;;;5043760;28;20449;-86
2022/09/25 11:04:01;;;;;;;13.37;12.07;;;18.10;99.90;;;;;;5056299;28;20433;-86
2022/09/25 11:06:31;;;;;;;15.10;13.60;;;17.90;99.90;;;;;;5059593;28;20454;-86
2022/09/25 11:09:07;;;;;;;18.57;16.60;;;17.60;99.90;;;;;;5053793;28;20426;-86
2022/09/25 11:11:35;;;;;;;15.70;14.20;;;17.40;99.90;;;;;;5041433;28;20445;-86
2022/09/25 11:14:04;;;;;;;17.10;15.43;;;17.30;99.90;;;;;;5058761;28;20417;-86
2022/09/25 11:16:46;;;;;;;18.40;16.60;;;17.10;99.90;;;;;;5044838;28;20445;-86
2022/09/25 11:19:17;;;;;;;18.23;16.33;;;17.00;99.90;;;;;;5039932;28;20448;-87
2022/09/25 11:21:50;;;;;;;19.17;17.37;;;16.80;99.90;;;;;;5037870;28;20454;-86
2022/09/25 11:24:24;;;;;;;19.40;17.40;;;16.70;99.90;;;;;;5037357;28;20438;-86
2022/09/25 11:26:57;;;;;;;20.13;18.33;;;16.60;99.90;;;;;;5035187;28;20456;-86
2022/09/25 11:29:32;;;;;;;20.40;18.20;;;16.60;99.90;;;;;;5035424;28;20580;-87
2022/09/25 11:32:05;;;;;;;20.27;18.17;;;16.50;99.90;;;;;;5038367;28;20449;-86
2022/09/25 11:34:50;;;;;;;21.43;19.30;;;16.60;99.90;;;;;;5043925;28;20472;-85
2022/09/25 11:37:22;;;;;;;23.43;21.00;;;16.60;99.90;;;;;;5044243;28;20464;-85
2022/09/25 11:42:46;;;;;;;20.93;18.37;;;16.60;99.90;;;;;;5046231;28;20585;-86
2022/09/25 11:45:20;;;;;;;24.43;21.57;;;16.60;99.90;;;;;;5049223;28;20456;-85
2022/09/25 11:47:53;;;;;;;23.53;20.00;;;16.60;99.90;;;;;;5056322;28;20450;-85
2022/09/25 11:50:27;;;;;;;22.93;20.43;;;16.80;99.90;;;;;;5034969;28;20527;-86
2022/09/25 11:53:04;;;;;;;23.43;20.80;;;16.90;99.90;;;;;;5033924;28;20460;-86
2022/09/25 11:55:54;;;;;;;24.33;20.23;;;16.90;99.90;;;;;;5033935;28;20497;-86
2022/09/25 11:58:38;;;;;;;21.90;19.77;;;16.90;99.90;;;;;;5053001;28;20444;-86
2022/09/25 12:01:17;;;;;;;22.43;20.33;;;17.00;99.90;;;;;;5052815;28;20467;-86
2022/09/25 12:03:57;;;;;;;22.27;19.93;;;17.00;99.90;;;;;;5052319;28;20448;-86
2022/09/25 12:06:52;;;;;;;21.13;19.17;;;17.10;99.90;;;;;;5052838;28;20514;-87
2022/09/25 12:09:34;;;;;;;24.73;20.30;;;17.20;99.90;;;;;;5050190;28;20443;-86
2022/09/25 12:12:07;;;;;;;22.07;20.00;;;17.20;99.90;;;;;;5068548;28;20413;-87
2022/09/25 12:14:42;;;;;;;23.83;19.10;;;17.20;99.90;;;;;;5052147;28;20570;-86
2022/09/25 12:17:19;;;;;;;24.67;21.67;;;17.30;99.90;;;;;;5051072;28;20532;-87
2022/09/25 12:19:51;;;;;;;25.03;21.60;;;17.30;99.90;;;;;;5050106;28;20535;-86
2022/09/25 12:22:25;;;;;;;19.70;17.80;;;17.30;99.90;;;;;;5049153;28;20531;-87
2022/09/25 12:25:05;;;;;;;21.67;19.37;;;17.30;99.90;;;;;;5051465;28;20903;-86
2022/09/25 12:27:46;;;;;;;19.23;17.43;;;17.30;99.90;;;;;;5050759;28;20440;-86
2022/09/25 12:30:18;;;;;;;21.50;17.70;;;17.60;99.90;;;;;;5050983;28;20993;-87
2022/09/25 12:33:01;;;;;;;19.93;17.93;;;17.80;99.90;;;;;;5050162;28;20472;-87
2022/09/25 12:35:35;;;;;;;20.90;19.13;;;18.30;99.90;;;;;;5051009;28;20473;-87
2022/09/25 12:38:09;;;;;;;19.33;16.93;;;18.80;99.90;;;;;;5052401;28;20450;-87
2022/09/25 12:40:42;;;;;;;21.20;19.20;;;19.20;99.90;;;;;;5050934;28;20443;-88
2022/09/25 12:43:13;;;;;;;17.73;16.00;;;19.70;99.90;;;;;;5052072;28;20524;-88
2022/09/25 12:45:45;;;;;;;19.80;17.83;;;20.00;99.90;;;;;;5049935;28;20469;-88
2022/09/25 12:48:17;;;;;;;19.20;17.30;;;20.50;99.90;;;;;;5053084;28;20449;-89
2022/09/25 12:50:52;;;;;;;17.77;15.97;;;23.40;99.90;;;;;;5053125;28;20481;-89
2022/09/25 12:53:29;;;;;;;18.20;16.50;;;25.60;91.90;;;;;;5054800;28;20447;-91
2022/09/25 12:56:02;;;;;;;18.83;16.90;;;24.80;90.30;;;;;;5060778;28;20461;-90
2022/09/25 12:58:46;;;;;;;16.90;15.40;;;24.00;91.20;;;;;;5054870;28;20461;-87
2022/09/25 13:01:21;;;;;;;17.80;16.03;;;22.80;92.50;;;;;;5053125;28;20502;-86
2022/09/25 13:03:54;;;;;;;15.70;14.33;;;21.80;94.40;;;;;;5053474;28;20452;-88